createdAt,value
2023-03-06T00:02:23.099Z,0.23
2023-03-06T00:04:49.768Z,0.29
2023-03-06T00:07:16.570Z,0.32
2023-03-06T00:09:43.427Z,0.33
2023-03-06T00:12:10.268Z,0.32
2023-03-06T00:14:36.972Z,0.28
2023-03-06T00:17:04.191Z,0.32
2023-03-06T00:19:31.145Z,0.35
2023-03-06T00:21:58.124Z,0.36
2023-03-06T00:24:24.861Z,0.36
2023-03-06T00:26:51.564Z,0.34
2023-03-06T00:29:18.251Z,0.35
2023-03-06T00:31:47.976Z,0.36
2023-03-06T00:34:15.160Z,0.38
2023-03-06T00:36:42.145Z,0.33
2023-03-06T00:39:09.726Z,0.33
2023-03-06T00:41:36.535Z,0.31
2023-03-06T00:44:03.295Z,0.31
2023-03-06T00:46:30.253Z,0.27
2023-03-06T00:48:57.000Z,0.29
2023-03-06T00:51:23.714Z,0.22
2023-03-06T00:53:50.465Z,0.18
2023-03-06T00:56:19.933Z,0.18
2023-03-06T00:58:47.885Z,0.18
2023-03-06T01:01:14.864Z,0.17
2023-03-06T01:03:41.675Z,0.17
2023-03-06T01:06:08.423Z,0.20
2023-03-06T01:08:35.432Z,0.19
2023-03-06T01:11:02.128Z,0.19
2023-03-06T01:13:28.939Z,0.16
2023-03-06T01:15:55.591Z,0.18
2023-03-06T01:18:22.455Z,0.20
2023-03-06T01:20:49.174Z,0.27
2023-03-06T01:23:15.897Z,0.17
2023-03-06T01:25:42.594Z,0.15
2023-03-06T01:28:09.299Z,0.18
2023-03-06T01:30:36.058Z,0.16
2023-03-06T01:33:02.943Z,0.16
2023-03-06T01:35:29.785Z,0.13
2023-03-06T01:37:56.538Z,0.05
2023-03-06T01:40:23.248Z,-0.04
2023-03-06T01:42:51.030Z,0.03
2023-03-06T01:45:17.704Z,0.13
2023-03-06T01:47:45.403Z,0.14
2023-03-06T01:50:12.739Z,0.19
2023-03-06T01:52:56.741Z,0.22
2023-03-06T01:55:26.979Z,0.26
2023-03-06T01:57:57.859Z,0.26
2023-03-06T02:00:26.977Z,0.31
2023-03-06T02:02:56.081Z,0.34
2023-03-06T02:05:23.211Z,0.39
2023-03-06T02:07:50.755Z,0.43
2023-03-06T02:10:18.755Z,0.41
2023-03-06T02:12:46.079Z,0.33
2023-03-06T02:15:14.399Z,0.36
2023-03-06T02:17:43.672Z,0.36
2023-03-06T02:20:15.312Z,0.34
2023-03-06T02:22:58.540Z,0.29
2023-03-06T02:25:41.232Z,0.35
2023-03-06T02:28:13.989Z,0.36
2023-03-06T02:30:42.520Z,0.32
2023-03-06T02:33:13.622Z,0.28
2023-03-06T02:35:44.201Z,0.33
2023-03-06T02:38:14.409Z,0.41
2023-03-06T02:40:42.488Z,0.32
2023-03-06T02:43:11.442Z,0.32
2023-03-06T02:45:45.381Z,0.37
2023-03-06T02:48:13.419Z,0.41
2023-03-06T02:50:40.720Z,0.41
2023-03-06T02:53:09.300Z,0.40
2023-03-06T02:55:36.554Z,0.39
2023-03-06T02:58:03.770Z,0.42
2023-03-06T03:00:33.807Z,0.47
2023-03-06T03:03:03.498Z,0.47
2023-03-06T03:05:31.424Z,0.46
2023-03-06T03:08:05.012Z,0.45
2023-03-06T03:10:32.351Z,0.49
2023-03-06T03:12:59.334Z,0.53
2023-03-06T03:15:26.165Z,0.52
2023-03-06T03:17:53.137Z,0.47
2023-03-06T03:20:21.838Z,0.49
2023-03-06T03:22:53.992Z,0.46
2023-03-06T03:25:24.392Z,0.52
2023-03-06T03:27:53.009Z,0.46
2023-03-06T03:30:20.056Z,0.45
2023-03-06T03:32:46.769Z,0.40
2023-03-06T03:35:13.674Z,0.39
2023-03-06T03:37:41.192Z,0.25
2023-03-06T03:40:10.543Z,0.21
2023-03-06T03:42:38.472Z,0.26
2023-03-06T03:45:06.752Z,0.32
2023-03-06T03:47:33.481Z,0.27
2023-03-06T03:50:00.702Z,0.30
2023-03-06T03:52:27.529Z,0.23
2023-03-06T03:54:54.579Z,0.28
2023-03-06T03:57:21.412Z,0.26
2023-03-06T03:59:51.404Z,0.31
2023-03-06T04:02:40.580Z,0.25
2023-03-06T04:05:16.245Z,0.22
2023-03-06T04:07:43.709Z,0.15
2023-03-06T04:10:12.576Z,0.14
2023-03-06T04:12:39.701Z,0.13
2023-03-06T04:15:07.809Z,-0.05
2023-03-06T04:17:35.601Z,-0.07
2023-03-06T04:20:05.195Z,-0.07
2023-03-06T04:22:32.885Z,-0.10
2023-03-06T04:25:00.369Z,-0.10
2023-03-06T04:27:27.362Z,-0.05
2023-03-06T04:29:56.509Z,-0.10
2023-03-06T04:32:24.172Z,-0.18
2023-03-06T04:34:51.331Z,-0.07
2023-03-06T04:37:23.301Z,-0.12
2023-03-06T04:39:53.958Z,-0.08
2023-03-06T04:42:20.887Z,-0.13
2023-03-06T04:44:47.662Z,-0.25
2023-03-06T04:47:14.458Z,-0.18
2023-03-06T04:49:41.219Z,-0.13
2023-03-06T04:52:08.355Z,-0.11
2023-03-06T04:54:35.221Z,-0.20
2023-03-06T04:57:02.096Z,-0.19
2023-03-06T04:59:28.828Z,-0.25
2023-03-06T05:01:55.819Z,-0.22
2023-03-06T05:04:22.635Z,-0.23
2023-03-06T05:06:49.625Z,-0.23
2023-03-06T05:09:16.925Z,-0.17
2023-03-06T05:11:43.587Z,-0.18
2023-03-06T05:14:10.339Z,-0.26
2023-03-06T05:16:37.064Z,-0.32
2023-03-06T05:19:03.781Z,-0.32
2023-03-06T05:21:30.577Z,-0.34
2023-03-06T05:23:57.474Z,-0.35
2023-03-06T05:26:24.212Z,-0.42
2023-03-06T05:28:50.950Z,-0.42
2023-03-06T05:31:17.713Z,-0.55
2023-03-06T05:33:44.405Z,-0.38
2023-03-06T05:36:11.700Z,-0.35
2023-03-06T05:38:38.400Z,-0.62
2023-03-06T05:41:05.485Z,-0.63
2023-03-06T05:43:32.220Z,-0.67
2023-03-06T05:46:06.168Z,-0.60
2023-03-06T05:48:33.503Z,-0.59
2023-03-06T05:51:01.376Z,-0.67
2023-03-06T05:53:29.407Z,-0.70
2023-03-06T05:56:04.046Z,-0.78
2023-03-06T05:58:32.020Z,-0.68
2023-03-06T06:00:58.897Z,-0.57
2023-03-06T06:03:25.707Z,-0.70
2023-03-06T06:05:52.677Z,-0.63
2023-03-06T06:08:19.372Z,-0.51
2023-03-06T06:10:46.047Z,-0.63
2023-03-06T06:13:12.775Z,-0.58
2023-03-06T06:15:39.516Z,-0.44
2023-03-06T06:18:06.233Z,-0.44
2023-03-06T06:20:33.198Z,-0.54
2023-03-06T06:22:59.909Z,-0.45
2023-03-06T06:25:26.644Z,-0.40
2023-03-06T06:27:55.437Z,-0.31
2023-03-06T06:30:22.885Z,-0.32
2023-03-06T06:32:49.861Z,-0.30
2023-03-06T06:35:16.645Z,-0.41
2023-03-06T06:37:43.311Z,-0.45
2023-03-06T06:40:10.638Z,-0.47
2023-03-06T06:42:40.086Z,-0.50
2023-03-06T06:45:09.093Z,-0.49
2023-03-06T06:47:38.432Z,-0.38
2023-03-06T06:50:05.795Z,-0.43
2023-03-06T06:52:32.458Z,-0.45
2023-03-06T06:54:59.118Z,-0.52
2023-03-06T06:57:25.851Z,-0.61
2023-03-06T06:59:54.063Z,-0.69
2023-03-06T07:02:21.296Z,-0.42
2023-03-06T07:05:02.448Z,-0.37
2023-03-06T07:07:30.874Z,-0.37
2023-03-06T07:09:57.703Z,-0.46
2023-03-06T07:12:24.460Z,-0.46
2023-03-06T07:14:51.147Z,-0.38
2023-03-06T07:17:18.126Z,-0.40
2023-03-06T07:19:44.838Z,-0.48
2023-03-06T07:22:11.936Z,-0.55
2023-03-06T07:24:38.660Z,-0.63
2023-03-06T07:27:05.414Z,-0.55
2023-03-06T07:29:34.116Z,-0.43
2023-03-06T07:32:00.961Z,-0.33
2023-03-06T07:34:27.805Z,-0.34
2023-03-06T07:36:54.613Z,-0.25
2023-03-06T07:39:21.406Z,-0.19
2023-03-06T07:41:48.149Z,-0.14
2023-03-06T07:44:14.916Z,-0.17
2023-03-06T07:46:41.741Z,-0.06
2023-03-06T07:49:08.563Z,-0.04
2023-03-06T07:51:35.331Z,-0.02
2023-03-06T07:54:02.259Z,-0.16
2023-03-06T07:56:44.453Z,-0.11
2023-03-06T07:59:14.265Z,-0.15
2023-03-06T08:01:41.237Z,-0.03
2023-03-06T08:04:13.694Z,-0.01
2023-03-06T08:06:40.664Z,-0.04
2023-03-06T08:09:10.189Z,-0.13
2023-03-06T08:11:37.057Z,-0.12
2023-03-06T08:14:06.196Z,-0.09
2023-03-06T08:16:33.035Z,-0.16
2023-03-06T08:18:59.910Z,-0.15
2023-03-06T08:21:27.992Z,-0.12
2023-03-06T08:23:55.360Z,-0.08
2023-03-06T08:26:24.907Z,-0.04
2023-03-06T08:28:53.385Z,0.01
2023-03-06T08:31:25.813Z,0.10
2023-03-06T08:33:53.182Z,0.01
2023-03-06T08:36:20.098Z,0.23
2023-03-06T08:38:49.136Z,0.33
2023-03-06T08:41:15.935Z,0.16
2023-03-06T08:43:42.942Z,0.28
2023-03-06T08:46:10.736Z,0.41
2023-03-06T08:48:37.946Z,0.49
2023-03-06T08:51:04.860Z,0.47
2023-03-06T08:53:42.659Z,0.51
2023-03-06T08:56:30.229Z,0.77
2023-03-06T08:59:00.073Z,0.73
2023-03-06T09:01:32.226Z,0.89
2023-03-06T09:04:01.631Z,0.88
2023-03-06T09:06:33.051Z,0.94
2023-03-06T09:09:00.263Z,0.86
2023-03-06T09:11:30.172Z,0.92
2023-03-06T09:13:58.533Z,0.86
2023-03-06T09:16:29.049Z,0.83
2023-03-06T09:19:09.798Z,0.80
2023-03-06T09:21:42.520Z,0.98
2023-03-06T09:24:11.164Z,0.64
2023-03-06T09:26:46.448Z,0.82
2023-03-06T09:29:25.478Z,0.89
2023-03-06T09:31:55.773Z,0.92
2023-03-06T09:34:46.516Z,0.89
2023-03-06T09:37:41.824Z,0.83
2023-03-06T09:40:31.367Z,0.77
2023-03-06T09:43:15.835Z,0.86
2023-03-06T09:45:48.309Z,0.87
2023-03-06T09:48:15.896Z,0.99
2023-03-06T09:50:50.215Z,1.08
2023-03-06T09:53:42.858Z,1.15
2023-03-06T09:56:21.973Z,1.23
2023-03-06T09:58:51.795Z,1.32
2023-03-06T10:01:28.601Z,1.40
2023-03-06T10:04:31.242Z,1.26
2023-03-06T10:07:04.927Z,1.19
2023-03-06T10:09:42.723Z,1.31
2023-03-06T10:12:19.529Z,1.37
2023-03-06T10:14:54.105Z,1.43
2023-03-06T10:17:22.899Z,1.44
2023-03-06T10:19:50.163Z,1.39
2023-03-06T10:25:38.750Z,1.35
2023-03-06T10:28:15.041Z,1.17
2023-03-06T10:30:51.751Z,1.09
2023-03-06T10:33:54.906Z,1.00
2023-03-06T10:36:27.401Z,1.04
2023-03-06T10:38:55.697Z,1.09
2023-03-06T10:41:28.420Z,0.93
2023-03-06T10:44:01.356Z,0.90
2023-03-06T10:46:31.727Z,0.98
2023-03-06T10:49:00.827Z,1.12
2023-03-06T10:51:29.077Z,1.03
2023-03-06T10:54:01.427Z,1.02
2023-03-06T10:56:31.407Z,0.86
2023-03-06T10:59:19.720Z,0.92
2023-03-06T11:01:48.783Z,1.01
2023-03-06T11:04:31.158Z,1.04
2023-03-06T11:07:15.619Z,1.04
2023-03-06T11:09:48.296Z,0.97
2023-03-06T11:12:21.399Z,0.95
2023-03-06T11:15:12.431Z,0.87
2023-03-06T11:24:57.990Z,0.93
2023-03-06T11:27:34.785Z,1.17
2023-03-06T11:30:16.981Z,1.28
2023-03-06T11:32:54.088Z,1.35
2023-03-06T11:35:27.382Z,1.23
2023-03-06T11:38:09.939Z,1.10
2023-03-06T11:40:37.667Z,1.19
2023-03-06T11:43:35.907Z,1.08
2023-03-06T11:46:19.145Z,0.94
2023-03-06T11:48:53.622Z,1.07
2023-03-06T11:51:28.175Z,1.06
2023-03-06T11:54:00.341Z,1.14
2023-03-06T11:57:24.373Z,0.98
2023-03-06T12:00:03.582Z,0.93
2023-03-06T12:02:57.446Z,1.02
2023-03-06T12:05:34.077Z,1.09
2023-03-06T12:08:49.093Z,1.14
2023-03-06T12:11:59.961Z,1.00
2023-03-06T12:14:53.644Z,0.98
2023-03-06T12:18:00.777Z,1.05
2023-03-06T12:23:44.798Z,1.13
2023-03-06T12:26:46.020Z,1.14
2023-03-06T12:29:40.391Z,1.07
2023-03-06T12:32:26.238Z,0.88
2023-03-06T12:34:59.216Z,0.96
2023-03-06T12:37:56.978Z,1.02
2023-03-06T12:40:35.906Z,0.99
2023-03-06T12:43:33.745Z,1.15
2023-03-06T12:46:24.306Z,1.26
2023-03-06T12:49:11.156Z,1.43
2023-03-06T12:51:40.069Z,1.62
2023-03-06T12:54:07.523Z,1.56
2023-03-06T12:56:44.145Z,1.62
2023-03-06T12:59:50.586Z,1.71
2023-03-06T13:02:56.229Z,1.59
2023-03-06T13:05:38.662Z,1.56
2023-03-06T13:08:15.735Z,1.66
2023-03-06T13:11:40.887Z,1.73
2023-03-06T13:14:26.305Z,1.80
2023-03-06T13:16:53.457Z,1.89
2023-03-06T13:19:22.562Z,1.98
2023-03-06T13:21:55.347Z,1.96
2023-03-06T13:24:34.363Z,2.27
2023-03-06T13:27:11.388Z,2.24
2023-03-06T13:29:38.152Z,2.30
2023-03-06T13:32:16.683Z,2.33
2023-03-06T13:34:47.061Z,2.41
2023-03-06T13:37:13.834Z,2.52
2023-03-06T13:40:10.106Z,2.43
2023-03-06T13:42:57.744Z,2.77
2023-03-06T13:45:30.709Z,2.80
2023-03-06T13:48:24.568Z,2.86
2023-03-06T13:50:49.172Z,2.91
2023-03-06T13:53:51.681Z,3.21
2023-03-06T13:56:54.206Z,3.21
2023-03-06T13:59:35.817Z,3.00
2023-03-06T14:02:28.112Z,2.83
2023-03-06T14:04:56.851Z,2.77
2023-03-06T14:07:28.668Z,2.69
2023-03-06T14:10:21.985Z,2.78
2023-03-06T14:12:48.827Z,3.19
2023-03-06T14:15:22.833Z,3.61
2023-03-06T14:17:57.495Z,3.05
2023-03-06T14:20:33.943Z,3.14
2023-03-06T14:23:21.053Z,3.07
2023-03-06T14:25:53.043Z,2.84
2023-03-06T14:28:25.933Z,2.78
2023-03-06T14:30:53.992Z,2.63
2023-03-06T14:33:43.402Z,2.61
2023-03-06T14:36:16.810Z,2.42
2023-03-06T14:38:56.132Z,2.29
2023-03-06T14:41:31.466Z,2.57
2023-03-06T14:44:27.965Z,2.66
2023-03-06T14:46:56.640Z,2.80
2023-03-06T14:49:25.796Z,3.07
2023-03-06T14:51:55.392Z,3.21
2023-03-06T14:54:26.878Z,3.39
2023-03-06T14:56:56.854Z,3.45
2023-03-06T14:59:26.822Z,3.51
2023-03-06T15:02:04.830Z,3.63
2023-03-06T15:04:36.952Z,3.54
2023-03-06T15:07:13.590Z,3.62
2023-03-06T15:09:45.293Z,3.44
2023-03-06T15:12:21.427Z,3.50
2023-03-06T15:15:03.743Z,3.75
2023-03-06T15:17:37.895Z,3.89
2023-03-06T15:20:09.727Z,4.04
2023-03-06T15:22:38.741Z,4.08
2023-03-06T15:25:21.224Z,4.03
2023-03-06T15:27:50.560Z,3.97
2023-03-06T15:30:29.850Z,4.23
2023-03-06T15:33:29.275Z,4.61
2023-03-06T15:36:04.392Z,4.57
2023-03-06T15:38:34.349Z,4.89
2023-03-06T15:41:03.531Z,5.26
2023-03-06T15:43:36.469Z,6.41
2023-03-06T15:46:05.319Z,8.12
2023-03-06T15:48:34.067Z,8.88
2023-03-06T15:51:01.728Z,9.17
2023-03-06T15:53:28.696Z,10.22
2023-03-06T15:55:57.225Z,9.10
2023-03-06T15:58:26.887Z,8.24
2023-03-06T16:00:53.815Z,6.85
2023-03-06T16:03:20.591Z,6.47
2023-03-06T16:05:47.464Z,5.94
2023-03-06T16:08:15.095Z,5.40
2023-03-06T16:10:43.132Z,4.67
2023-03-06T16:13:17.616Z,3.84
2023-03-06T16:15:47.475Z,3.48
2023-03-06T16:18:14.511Z,3.17
2023-03-06T16:20:41.901Z,3.01
2023-03-06T16:23:10.726Z,2.73
2023-03-06T16:25:42.367Z,2.52
2023-03-06T16:28:16.580Z,2.27
2023-03-06T16:30:44.927Z,2.11
2023-03-06T16:33:12.746Z,2.00
2023-03-06T16:35:40.227Z,1.96
2023-03-06T16:38:07.004Z,1.90
2023-03-06T16:40:37.839Z,1.78
2023-03-06T16:43:05.125Z,1.61
2023-03-06T16:45:35.643Z,1.52
2023-03-06T16:48:02.512Z,1.50
2023-03-06T16:50:34.119Z,1.39
2023-03-06T16:53:00.865Z,1.36
2023-03-06T16:55:28.031Z,1.38
2023-03-06T16:57:54.952Z,1.32
2023-03-06T17:00:24.698Z,1.36
2023-03-06T17:02:52.460Z,1.27
2023-03-06T17:05:19.800Z,1.25
2023-03-06T17:07:46.945Z,1.39
2023-03-06T17:10:16.780Z,1.30
2023-03-06T17:12:43.908Z,1.20
2023-03-06T17:15:11.319Z,1.23
2023-03-06T17:17:38.103Z,1.19
2023-03-06T17:20:11.953Z,1.10
2023-03-06T17:22:38.946Z,1.20
2023-03-06T17:25:07.027Z,1.22
2023-03-06T17:27:34.708Z,1.20
2023-03-06T17:30:01.749Z,1.10
2023-03-06T17:32:28.659Z,1.03
2023-03-06T17:34:56.476Z,0.93
2023-03-06T17:37:23.242Z,0.81
2023-03-06T17:39:50.039Z,0.79
2023-03-06T17:42:17.044Z,0.81
2023-03-06T17:44:43.720Z,0.87
2023-03-06T17:47:10.634Z,0.91
2023-03-06T17:49:37.486Z,0.96
2023-03-06T17:52:06.657Z,0.98
2023-03-06T17:54:37.048Z,0.97
2023-03-06T17:57:05.724Z,0.98
2023-03-06T17:59:35.918Z,0.94
2023-03-06T18:02:02.802Z,0.92
2023-03-06T18:04:29.928Z,0.92
2023-03-06T18:06:58.401Z,0.91
2023-03-06T18:09:25.134Z,0.87
2023-03-06T18:11:51.842Z,0.86
2023-03-06T18:14:18.716Z,0.88
2023-03-06T18:16:45.434Z,0.85
2023-03-06T18:19:12.748Z,0.85
2023-03-06T18:21:39.983Z,0.85
2023-03-06T18:24:07.573Z,0.85
2023-03-06T18:26:34.314Z,0.77
2023-03-06T18:29:04.579Z,0.77
2023-03-06T18:31:39.513Z,0.78
2023-03-06T18:34:08.754Z,0.74
2023-03-06T18:36:35.880Z,0.74
2023-03-06T18:39:03.999Z,0.70
2023-03-06T18:41:31.399Z,0.67
2023-03-06T18:44:02.519Z,0.64
2023-03-06T18:46:34.565Z,0.52
2023-03-06T18:49:01.741Z,0.48
2023-03-06T18:51:29.314Z,0.41
2023-03-06T18:53:58.222Z,0.42
2023-03-06T18:56:25.302Z,0.45
2023-03-06T18:58:52.330Z,0.46
2023-03-06T19:01:19.400Z,0.44
2023-03-06T19:03:46.753Z,0.42
2023-03-06T19:06:15.361Z,0.36
2023-03-06T19:08:42.256Z,0.31
2023-03-06T19:11:14.809Z,0.20
2023-03-06T19:13:42.061Z,0.24
2023-03-06T19:16:09.382Z,0.17
2023-03-06T19:18:36.215Z,0.17
2023-03-06T19:21:10.771Z,0.16
2023-03-06T19:23:38.132Z,0.12
2023-03-06T19:26:05.302Z,0.08
2023-03-06T19:28:32.060Z,0.04
2023-03-06T19:30:58.797Z,0.04
2023-03-06T19:33:25.977Z,0.02
2023-03-06T19:35:53.239Z,0.00
2023-03-06T19:38:20.004Z,0.01
2023-03-06T19:40:50.682Z,-0.03
2023-03-06T19:43:17.390Z,-0.12
2023-03-06T19:45:44.618Z,-0.11
2023-03-06T19:48:12.645Z,-0.09
2023-03-06T19:50:40.485Z,-0.08
2023-03-06T19:53:07.933Z,-0.11
2023-03-06T19:55:38.034Z,-0.14
2023-03-06T19:58:04.962Z,-0.14
2023-03-06T20:00:31.921Z,-0.16
2023-03-06T20:02:58.707Z,-0.20
2023-03-06T20:05:25.422Z,-0.17
2023-03-06T20:07:52.399Z,-0.20
2023-03-06T20:10:19.351Z,-0.22
2023-03-06T20:12:46.100Z,-0.25
2023-03-06T20:15:13.215Z,-0.25
2023-03-06T20:17:40.901Z,-0.29
2023-03-06T20:20:10.799Z,-0.30
2023-03-06T20:22:37.811Z,-0.30
2023-03-06T20:25:05.023Z,-0.36
2023-03-06T20:27:31.906Z,-0.32
2023-03-06T20:29:58.624Z,-0.37
2023-03-06T20:32:25.585Z,-0.38
2023-03-06T20:34:52.353Z,-0.37
2023-03-06T20:37:19.259Z,-0.41
2023-03-06T20:39:46.790Z,-0.41
2023-03-06T20:42:13.548Z,-0.42
2023-03-06T20:44:40.239Z,-0.44
2023-03-06T20:47:07.731Z,-0.43
2023-03-06T20:49:34.458Z,-0.44
2023-03-06T20:52:01.184Z,-0.47
2023-03-06T20:54:27.901Z,-0.45
2023-03-06T20:56:54.654Z,-0.50
2023-03-06T20:59:21.639Z,-0.50
2023-03-06T21:01:48.404Z,-0.48
2023-03-06T21:04:15.513Z,-0.47
2023-03-06T21:06:46.504Z,-0.48
2023-03-06T21:09:17.502Z,-0.52
2023-03-06T21:11:44.383Z,-0.55
2023-03-06T21:14:13.295Z,-0.55
2023-03-06T21:16:40.623Z,-0.56
2023-03-06T21:19:07.410Z,-0.54
2023-03-06T21:21:35.102Z,-0.58
2023-03-06T21:24:02.606Z,-0.63
2023-03-06T21:26:31.519Z,-0.68
2023-03-06T21:28:59.078Z,-0.72
2023-03-06T21:31:26.332Z,-0.72
2023-03-06T21:33:53.176Z,-0.73
2023-03-06T21:36:24.823Z,-0.73
2023-03-06T21:38:52.527Z,-0.76
2023-03-06T21:41:27.866Z,-0.77
2023-03-06T21:44:03.481Z,-0.80
2023-03-06T21:46:30.704Z,-0.83
2023-03-06T21:48:57.717Z,-0.82
2023-03-06T21:51:25.907Z,-0.81
2023-03-06T21:53:53.086Z,-0.80
2023-03-06T21:56:22.187Z,-0.80
2023-03-06T21:58:48.887Z,-0.81
2023-03-06T22:01:21.821Z,-0.82
2023-03-06T22:03:48.816Z,-0.85
2023-03-06T22:06:26.254Z,-0.86
2023-03-06T22:08:55.135Z,-0.86
2023-03-06T22:11:23.414Z,-0.92
2023-03-06T22:13:50.623Z,-0.90
2023-03-06T22:16:18.460Z,-0.93
2023-03-06T22:18:46.600Z,-0.95
2023-03-06T22:21:15.130Z,-0.94
2023-03-06T22:23:42.246Z,-0.94
2023-03-06T22:26:12.443Z,-0.94
2023-03-06T22:28:39.942Z,-0.94
2023-03-06T22:31:12.231Z,-0.82
2023-03-06T22:33:39.323Z,-0.89
2023-03-06T22:36:11.481Z,-0.68
2023-03-06T22:38:40.798Z,-0.48
2023-03-06T22:41:08.450Z,-0.52
2023-03-06T22:43:35.644Z,-0.51
2023-03-06T22:46:04.192Z,-0.31
2023-03-06T22:48:31.233Z,-0.15
2023-03-06T22:51:05.005Z,-0.12
2023-03-06T22:53:32.749Z,-0.16
2023-03-06T22:56:00.353Z,-0.08
2023-03-06T22:58:28.526Z,-0.09
2023-03-06T23:00:55.235Z,-0.05
2023-03-06T23:03:21.934Z,-0.08
2023-03-06T23:05:48.710Z,-0.17
2023-03-06T23:08:15.337Z,-0.20
2023-03-06T23:10:42.010Z,-0.25
2023-03-06T23:13:27.432Z,-0.29
2023-03-06T23:16:13.098Z,-0.16
2023-03-06T23:18:58.422Z,-0.14
2023-03-06T23:21:43.727Z,-0.10
2023-03-06T23:24:29.108Z,-0.05
2023-03-06T23:26:55.847Z,-0.04
2023-03-06T23:29:22.675Z,-0.12
2023-03-06T23:31:49.383Z,-0.19
2023-03-06T23:34:16.052Z,-0.08
2023-03-06T23:36:42.717Z,-0.08
2023-03-06T23:39:09.795Z,-0.31
2023-03-06T23:41:36.646Z,-0.30
2023-03-06T23:44:03.421Z,-0.36
2023-03-06T23:46:30.169Z,-0.48
2023-03-06T23:48:56.899Z,-0.47
2023-03-06T23:51:23.970Z,-0.47
2023-03-06T23:53:58.784Z,-0.60
2023-03-06T23:56:27.365Z,-0.59
2023-03-06T23:58:54.300Z,-0.64
